createdAt,value
2018-04-15T00:00:03.572Z,43.80
2018-04-15T00:02:31.422Z,43.80
2018-04-15T00:04:58.918Z,43.60
2018-04-15T00:07:26.503Z,43.80
2018-04-15T00:09:54.142Z,44.90
2018-04-15T00:12:22.270Z,44.00
2018-04-15T00:14:49.814Z,45.60
2018-04-15T00:17:18.345Z,45.60
2018-04-15T00:19:45.896Z,44.90
2018-04-15T00:22:13.391Z,44.90
2018-04-15T00:24:40.923Z,44.40
2018-04-15T00:27:08.834Z,45.90
2018-04-15T00:29:36.330Z,44.50
2018-04-15T00:32:03.984Z,45.30
2018-04-15T00:34:31.493Z,45.40
2018-04-15T00:36:58.990Z,44.70
2018-04-15T00:39:27.718Z,46.00
2018-04-15T00:41:55.223Z,46.00
2018-04-15T00:44:23.486Z,44.90
2018-04-15T00:46:51.169Z,44.80
2018-04-15T00:49:19.543Z,45.80
2018-04-15T00:51:47.807Z,45.50
2018-04-15T00:54:16.918Z,47.00
2018-04-15T00:56:45.463Z,46.50
2018-04-15T00:59:13.023Z,46.20
2018-04-15T01:01:40.537Z,45.60
2018-04-15T01:04:08.031Z,46.60
2018-04-15T01:06:35.666Z,46.10
2018-04-15T01:09:03.182Z,45.60
2018-04-15T01:11:31.461Z,45.60
2018-04-15T01:13:59.731Z,45.90
2018-04-15T01:16:28.025Z,46.20
2018-04-15T01:18:56.550Z,46.60
2018-04-15T01:21:24.041Z,46.50
2018-04-15T01:23:51.602Z,46.50
2018-04-15T01:26:19.874Z,47.40
2018-04-15T01:28:47.524Z,46.50
2018-04-15T01:31:16.550Z,46.50
2018-04-15T01:33:44.826Z,46.50
2018-04-15T01:36:13.107Z,46.50
2018-04-15T01:38:41.424Z,46.40
2018-04-15T01:41:08.928Z,46.50
2018-04-15T01:43:37.213Z,46.00
2018-04-15T01:46:05.514Z,46.60
2018-04-15T01:48:33.026Z,46.40
2018-04-15T01:51:01.294Z,45.80
2018-04-15T01:53:30.340Z,46.20
2018-04-15T01:55:57.843Z,46.20
2018-04-15T01:58:25.411Z,46.40
2018-04-15T02:00:53.714Z,46.10
2018-04-15T02:03:21.991Z,46.00
2018-04-15T02:05:51.125Z,46.40
2018-04-15T02:08:18.686Z,46.40
2018-04-15T02:10:46.274Z,46.30
2018-04-15T02:13:13.803Z,45.80
2018-04-15T02:15:41.328Z,46.20
2018-04-15T02:18:09.600Z,47.10
2018-04-15T02:20:37.869Z,46.10
2018-04-15T02:23:06.308Z,46.30
2018-04-15T02:25:33.935Z,46.20
2018-04-15T02:28:01.451Z,46.10
2018-04-15T02:30:28.980Z,46.10
2018-04-15T02:32:56.757Z,46.30
2018-04-15T02:35:24.309Z,46.10
2018-04-15T02:37:51.866Z,46.10
2018-04-15T02:40:19.631Z,46.10
2018-04-15T02:42:47.311Z,46.10
2018-04-15T02:45:14.839Z,46.80
2018-04-15T02:47:42.338Z,46.10
2018-04-15T02:50:11.394Z,46.20
2018-04-15T02:52:39.062Z,46.20
2018-04-15T02:55:06.566Z,46.10
2018-04-15T02:57:35.793Z,46.10
2018-04-15T03:00:03.325Z,46.10
2018-04-15T03:02:31.614Z,46.10
2018-04-15T03:04:59.887Z,46.10
2018-04-15T03:07:28.238Z,46.00
2018-04-15T03:09:55.743Z,46.00
2018-04-15T03:12:23.306Z,46.00
2018-04-15T03:14:50.847Z,46.00
2018-04-15T03:17:19.119Z,46.00
2018-04-15T03:19:47.661Z,47.40
2018-04-15T03:22:15.209Z,47.50
2018-04-15T03:24:42.717Z,47.70
2018-04-15T03:27:10.986Z,46.30
2018-04-15T03:29:39.277Z,46.00
2018-04-15T03:32:07.807Z,46.70
2018-04-15T03:34:35.310Z,46.80
2018-04-15T03:37:03.626Z,46.70
2018-04-15T03:39:31.507Z,46.50
2018-04-15T03:41:59.014Z,47.00
2018-04-15T03:44:27.324Z,45.80
2018-04-15T03:46:54.826Z,45.90
2018-04-15T03:49:23.123Z,46.50
2018-04-15T03:51:51.425Z,45.90
2018-04-15T03:54:18.929Z,45.80
2018-04-15T03:56:46.434Z,46.00
2018-04-15T03:59:13.964Z,46.80
2018-04-15T04:01:42.226Z,47.70
2018-04-15T04:04:09.870Z,47.60
2018-04-15T04:06:37.400Z,45.80
2018-04-15T04:09:05.131Z,45.90
2018-04-15T04:11:33.417Z,46.10
2018-04-15T04:14:01.739Z,46.30
2018-04-15T04:16:29.254Z,46.50
2018-04-15T04:19:09.369Z,46.00
2018-04-15T04:21:50.382Z,45.80
2018-04-15T04:24:30.725Z,45.80
2018-04-15T04:26:58.426Z,45.80
2018-04-15T04:29:26.777Z,45.90
2018-04-15T04:31:55.154Z,45.80
2018-04-15T04:34:23.434Z,45.80
2018-04-15T04:36:51.939Z,45.80
2018-04-15T04:39:19.637Z,45.80
2018-04-15T04:41:47.646Z,46.60
2018-04-15T04:44:15.919Z,46.90
2018-04-15T04:46:44.214Z,45.60
2018-04-15T04:49:11.725Z,45.60
2018-04-15T04:51:39.222Z,46.30
2018-04-15T04:54:07.517Z,46.00
2018-04-15T04:56:35.023Z,45.90
2018-04-15T04:59:02.527Z,46.70
2018-04-15T05:01:30.321Z,46.60
2018-04-15T05:03:57.991Z,46.90
2018-04-15T05:06:25.494Z,46.10
2018-04-15T05:08:53.799Z,46.70
2018-04-15T05:11:21.319Z,46.90
2018-04-15T05:13:49.614Z,46.40
2018-04-15T05:16:17.909Z,46.30
2018-04-15T05:18:45.443Z,46.20
2018-04-15T05:21:13.719Z,46.60
2018-04-15T05:23:42.023Z,46.50
2018-04-15T05:26:09.539Z,46.60
2018-04-15T05:28:37.834Z,45.90
2018-04-15T05:31:06.138Z,45.90
2018-04-15T05:33:33.688Z,45.90
2018-04-15T05:36:01.199Z,45.70
2018-04-15T05:38:30.289Z,44.50
2018-04-15T05:40:57.813Z,44.50
2018-04-15T05:43:25.702Z,45.50
2018-04-15T05:45:53.287Z,45.70
2018-04-15T05:48:21.848Z,46.00
2018-04-15T05:50:49.376Z,46.00
2018-04-15T05:53:17.166Z,45.30
2018-04-15T05:55:44.686Z,44.20
2018-04-15T05:58:12.258Z,45.40
2018-04-15T06:00:39.882Z,44.80
2018-04-15T06:03:08.326Z,44.60
2018-04-15T06:05:35.949Z,44.60
2018-04-15T06:08:03.617Z,44.50
2018-04-15T06:10:31.330Z,44.10
2018-04-15T06:12:58.851Z,44.10
2018-04-15T06:15:26.516Z,44.20
2018-04-15T06:17:54.862Z,43.70
2018-04-15T06:20:23.139Z,44.60
2018-04-15T06:22:51.484Z,43.80
2018-04-15T06:25:19.216Z,43.80
2018-04-15T06:27:46.746Z,45.10
2018-04-15T06:30:14.278Z,44.80
2018-04-15T06:32:41.794Z,44.10
2018-04-15T06:35:09.331Z,44.70
2018-04-15T06:37:36.969Z,45.10
2018-04-15T06:40:05.308Z,44.70
2018-04-15T06:42:32.782Z,44.60
2018-04-15T06:45:00.386Z,43.90
2018-04-15T06:47:28.796Z,43.70
2018-04-15T06:49:56.335Z,43.30
2018-04-15T06:52:23.889Z,43.50
2018-04-15T06:54:51.428Z,43.80
2018-04-15T06:57:19.715Z,44.00
2018-04-15T06:59:47.271Z,43.80
2018-04-15T07:02:15.817Z,43.30
2018-04-15T07:04:43.340Z,43.40
2018-04-15T07:07:10.881Z,43.90
2018-04-15T07:09:38.440Z,43.20
2018-04-15T07:12:06.020Z,43.50
2018-04-15T07:14:33.545Z,43.20
2018-04-15T07:17:01.868Z,42.80
2018-04-15T07:19:29.630Z,42.80
2018-04-15T07:21:57.176Z,42.30
2018-04-15T07:27:45.863Z,29.10
2018-04-15T07:30:14.183Z,38.50
2018-04-15T07:32:41.728Z,38.20
2018-04-15T07:35:10.045Z,41.80
2018-04-15T07:37:38.356Z,41.80
2018-04-15T07:40:05.888Z,42.40
2018-04-15T07:42:34.205Z,41.60
2018-04-15T07:45:01.740Z,41.70
2018-04-15T07:47:30.027Z,43.70
2018-04-15T07:49:58.348Z,43.00
2018-04-15T07:52:25.903Z,43.10
2018-04-15T07:54:53.441Z,42.60
2018-04-15T07:57:21.215Z,43.50
2018-04-15T07:59:48.760Z,42.80
2018-04-15T08:02:16.334Z,42.40
2018-04-15T08:04:43.851Z,42.00
2018-04-15T08:07:11.571Z,42.00
2018-04-15T08:09:39.087Z,42.30
2018-04-15T08:12:07.593Z,41.80
2018-04-15T08:14:35.897Z,42.10
2018-04-15T08:17:04.183Z,42.50
2018-04-15T08:19:32.572Z,42.50
2018-04-15T08:22:00.861Z,42.10
2018-04-15T08:24:29.144Z,41.70
2018-04-15T08:26:57.467Z,41.60
2018-04-15T08:29:24.995Z,41.50
2018-04-15T08:31:52.556Z,41.40
2018-04-15T08:34:20.213Z,41.60
2018-04-15T08:36:47.732Z,41.40
2018-04-15T08:39:16.007Z,41.50
2018-04-15T08:41:44.315Z,41.30
2018-04-15T08:44:11.831Z,41.20
2018-04-15T08:46:39.345Z,42.10
2018-04-15T08:49:07.678Z,41.60
2018-04-15T08:51:35.419Z,41.60
2018-04-15T08:54:03.773Z,42.00
2018-04-15T08:56:31.734Z,42.10
2018-04-15T08:58:59.483Z,42.40
2018-04-15T09:07:22.867Z,42.40
2018-04-15T09:09:50.627Z,41.90
2018-04-15T09:12:19.404Z,41.50
2018-04-15T09:14:46.961Z,41.70
2018-04-15T09:17:14.469Z,41.70
2018-04-15T09:19:43.796Z,42.10
2018-04-15T09:22:11.334Z,42.20
2018-04-15T09:24:38.874Z,43.10
2018-04-15T09:27:07.445Z,42.00
2018-04-15T09:29:35.036Z,42.10
2018-04-15T09:32:02.603Z,42.30
2018-04-15T09:34:32.822Z,42.00
2018-04-15T09:37:01.117Z,42.30
2018-04-15T09:39:28.659Z,42.40
2018-04-15T09:41:58.315Z,42.70
2018-04-15T09:44:28.736Z,42.30
2018-04-15T09:46:56.314Z,42.20
2018-04-15T09:49:24.090Z,42.10
2018-04-15T09:51:52.660Z,42.10
2018-04-15T09:54:20.188Z,42.10
2018-04-15T09:56:47.783Z,42.10
2018-04-15T09:59:15.548Z,42.00
2018-04-15T10:01:43.154Z,42.00
2018-04-15T10:04:11.654Z,42.60
2018-04-15T10:06:39.189Z,42.70
2018-04-15T10:09:07.645Z,42.10
2018-04-15T10:11:35.370Z,42.00
2018-04-15T10:14:02.891Z,41.20
2018-04-15T10:16:30.582Z,41.60
2018-04-15T10:18:58.152Z,42.00
2018-04-15T10:21:25.781Z,42.10
2018-04-15T10:23:54.051Z,41.50
2018-04-15T10:26:22.394Z,41.70
2018-04-15T10:28:49.971Z,41.60
2018-04-15T10:31:17.488Z,39.70
2018-04-15T10:33:45.075Z,41.70
2018-04-15T10:36:12.605Z,40.80
2018-04-15T10:38:40.154Z,40.70
2018-04-15T10:41:08.320Z,40.70
2018-04-15T10:43:35.844Z,42.20
2018-04-15T10:46:03.405Z,40.50
2018-04-15T10:48:31.711Z,41.80
2018-04-15T10:50:59.246Z,41.80
2018-04-15T10:53:27.542Z,40.20
2018-04-15T10:55:55.078Z,40.20
2018-04-15T10:58:22.698Z,40.30
2018-04-15T11:00:50.255Z,41.10
2018-04-15T11:03:17.762Z,40.90
2018-04-15T11:05:46.083Z,39.30
2018-04-15T11:08:13.662Z,39.30
2018-04-15T11:10:41.631Z,38.30
2018-04-15T11:13:09.140Z,41.10
2018-04-15T11:15:37.431Z,39.60
2018-04-15T11:18:04.995Z,39.60
2018-04-15T11:20:32.553Z,40.10
2018-04-15T11:23:00.155Z,40.40
2018-04-15T11:25:27.703Z,39.90
2018-04-15T11:27:55.249Z,39.80
2018-04-15T11:30:22.989Z,40.30
2018-04-15T11:32:50.566Z,40.20
2018-04-15T11:35:18.145Z,40.30
2018-04-15T11:37:45.674Z,40.80
2018-04-15T11:40:13.198Z,40.90
2018-04-15T11:42:41.508Z,40.70
2018-04-15T11:45:09.061Z,40.60
2018-04-15T11:47:37.363Z,39.50
2018-04-15T11:50:04.954Z,39.70
2018-04-15T11:52:32.566Z,39.60
2018-04-15T11:55:00.179Z,39.70
2018-04-15T11:57:27.756Z,39.60
2018-04-15T11:59:56.244Z,41.20
2018-04-15T12:02:24.561Z,42.30
2018-04-15T12:04:52.201Z,42.30
2018-04-15T12:07:19.825Z,39.80
2018-04-15T12:09:47.394Z,42.00
2018-04-15T12:12:15.034Z,37.90
2018-04-15T12:14:43.334Z,38.80
2018-04-15T12:17:12.437Z,41.60
2018-04-15T12:23:41.327Z,1.00
2018-04-15T12:26:09.621Z,1.00
2018-04-15T12:28:38.032Z,1.00
2018-04-15T12:31:05.614Z,1.00
2018-04-15T12:33:33.663Z,1.00
2018-04-15T12:36:01.990Z,1.00
2018-04-15T12:38:30.111Z,1.00
2018-04-15T12:40:57.687Z,1.00
2018-04-15T12:47:45.531Z,1.00
2018-04-15T12:50:13.095Z,1.00
2018-04-15T12:52:41.371Z,1.00
2018-04-15T12:58:14.703Z,1.00
2018-04-15T13:00:42.438Z,32.80
2018-04-15T13:03:10.103Z,30.00
2018-04-15T13:05:37.627Z,21.80
2018-04-15T13:08:05.571Z,26.90
2018-04-15T13:10:33.083Z,31.10
2018-04-15T13:13:01.408Z,33.60
2018-04-15T13:15:29.150Z,33.50
2018-04-15T13:17:56.674Z,35.80
2018-04-15T13:20:24.542Z,34.50
2018-04-15T13:22:52.056Z,35.70
2018-04-15T13:25:19.621Z,35.90
2018-04-15T13:27:47.270Z,36.90
2018-04-15T13:30:14.784Z,36.40
2018-04-15T13:32:43.107Z,36.20
2018-04-15T13:35:11.385Z,35.90
2018-04-15T13:37:39.719Z,35.70
2018-04-15T13:40:07.243Z,35.70
2018-04-15T13:42:35.666Z,37.20
2018-04-15T13:45:03.268Z,37.20
2018-04-15T13:47:30.787Z,36.90
2018-04-15T13:50:00.069Z,35.90
2018-04-15T13:52:28.368Z,35.10
2018-04-15T13:54:55.891Z,35.10
2018-04-15T13:57:23.420Z,35.80
2018-04-15T13:59:51.132Z,36.30
2018-04-15T14:02:18.692Z,36.90
2018-04-15T14:04:46.212Z,36.10
2018-04-15T14:07:13.716Z,35.90
2018-04-15T14:09:42.016Z,36.30
2018-04-15T14:12:10.459Z,37.50
2018-04-15T14:14:38.003Z,37.30
2018-04-15T14:17:05.529Z,35.90
2018-04-15T14:19:33.050Z,36.80
2018-04-15T14:22:00.579Z,35.70
2018-04-15T14:24:28.959Z,34.90
2018-04-15T14:26:57.328Z,33.60
2018-04-15T14:29:24.816Z,33.60
2018-04-15T14:31:52.347Z,32.60
2018-04-15T14:34:19.881Z,32.40
2018-04-15T14:36:48.335Z,32.10
2018-04-15T14:39:15.879Z,32.00
2018-04-15T14:41:43.452Z,31.80
2018-04-15T14:48:20.998Z,30.70
2018-04-15T14:50:48.548Z,30.00
2018-04-15T14:53:16.842Z,41.50
2018-04-15T14:55:45.115Z,32.30
2018-04-15T14:58:13.391Z,31.10
2018-04-15T15:00:40.982Z,31.10
2018-04-15T15:03:08.548Z,31.50
2018-04-15T15:05:37.040Z,34.00
2018-04-15T16:01:25.143Z,22.90
2018-04-15T16:03:52.756Z,23.00
2018-04-15T16:06:21.070Z,23.60
2018-04-15T16:08:49.362Z,24.40
2018-04-15T16:11:16.878Z,24.60
2018-04-15T16:13:46.175Z,25.80
2018-04-15T16:16:13.708Z,25.90
2018-04-15T16:18:41.291Z,27.50
2018-04-15T16:21:08.829Z,28.50
2018-04-15T16:23:36.342Z,29.00
2018-04-15T16:26:04.650Z,29.50
2018-04-15T16:28:32.198Z,29.70
2018-04-15T16:30:59.883Z,29.80
2018-04-15T16:33:27.441Z,30.00
2018-04-15T16:35:54.953Z,30.30
2018-04-15T16:38:23.587Z,30.80
2018-04-15T16:40:51.116Z,30.90
2018-04-15T16:43:19.002Z,31.30
2018-04-15T16:45:46.535Z,31.60
2018-04-15T16:48:14.447Z,31.30
2018-04-15T16:50:42.042Z,31.40
2018-04-15T16:53:10.401Z,31.90
2018-04-15T16:55:38.849Z,33.00
2018-04-15T16:58:06.399Z,33.00
2018-04-15T17:00:33.926Z,33.30
2018-04-15T17:03:02.254Z,34.20
2018-04-15T17:05:29.925Z,33.80
2018-04-15T17:07:57.980Z,34.10
2018-04-15T17:10:26.735Z,35.00
2018-04-15T17:12:56.248Z,35.70
2018-04-15T17:15:23.864Z,36.10
2018-04-15T17:17:52.279Z,36.30
2018-04-15T17:20:19.843Z,36.60
2018-04-15T17:22:47.407Z,37.40
2018-04-15T17:25:15.308Z,38.00
2018-04-15T17:27:43.003Z,37.70
2018-04-15T17:30:11.283Z,38.30
2018-04-15T17:32:38.905Z,38.10
2018-04-15T17:35:06.672Z,38.20
2018-04-15T17:37:34.174Z,38.80
2018-04-15T17:40:01.730Z,38.30
2018-04-15T17:42:29.288Z,38.40
2018-04-15T17:44:56.787Z,38.30
2018-04-15T17:47:24.347Z,38.50
2018-04-15T17:49:51.862Z,38.50
2018-04-15T17:52:20.235Z,39.40
2018-04-15T17:54:47.769Z,38.80
2018-04-15T17:57:15.282Z,39.10
2018-04-15T17:59:42.846Z,38.90
2018-04-15T18:02:10.346Z,38.90
2018-04-15T18:04:38.203Z,38.40
2018-04-15T18:07:05.715Z,38.70
2018-04-15T18:09:34.002Z,39.30
2018-04-15T18:12:03.039Z,38.70
2018-04-15T18:14:30.578Z,38.90
2018-04-15T18:16:58.361Z,39.10
2018-04-15T18:19:26.058Z,39.00
2018-04-15T18:21:54.412Z,40.70
2018-04-15T18:24:21.954Z,39.70
2018-04-15T18:26:49.607Z,39.40
2018-04-15T18:29:17.140Z,39.30
2018-04-15T18:31:44.661Z,40.00
2018-04-15T18:34:12.182Z,39.80
2018-04-15T18:36:40.288Z,40.00
2018-04-15T18:39:08.289Z,40.20
2018-04-15T18:41:36.626Z,41.50
2018-04-15T18:44:04.170Z,41.30
2018-04-15T18:46:31.712Z,41.90
2018-04-15T18:48:59.263Z,42.20
2018-04-15T18:51:26.803Z,42.80
2018-04-15T18:53:55.116Z,43.60
2018-04-15T18:56:23.471Z,43.40
2018-04-15T18:58:50.984Z,43.70
2018-04-15T19:01:18.724Z,43.90
2018-04-15T19:03:46.242Z,44.00
2018-04-15T19:06:14.261Z,44.60
2018-04-15T19:08:41.817Z,44.60
2018-04-15T19:11:09.380Z,44.50
2018-04-15T19:13:36.907Z,44.50
2018-04-15T19:16:05.574Z,44.50
2018-04-15T19:18:34.309Z,44.40
2018-04-15T19:21:01.866Z,44.50
2018-04-15T19:23:29.425Z,45.10
2018-04-15T19:25:57.019Z,45.10
2018-04-15T19:28:26.211Z,45.80
2018-04-15T19:30:54.191Z,45.30
2018-04-15T19:33:21.788Z,45.40
2018-04-15T19:35:49.306Z,45.50
2018-04-15T19:38:17.097Z,45.40
2018-04-15T19:40:45.413Z,45.70
2018-04-15T19:43:12.942Z,45.30
2018-04-15T19:45:40.476Z,45.80
2018-04-15T19:48:08.745Z,46.00
2018-04-15T19:50:36.276Z,45.20
2018-04-15T19:53:03.795Z,45.90
2018-04-15T19:55:31.363Z,45.40
2018-04-15T19:57:58.915Z,45.10
2018-04-15T20:00:26.451Z,45.90
2018-04-15T20:02:54.843Z,45.80
2018-04-15T20:05:22.345Z,45.20
2018-04-15T20:07:49.884Z,45.20
2018-04-15T20:10:17.513Z,44.90
2018-04-15T20:12:45.801Z,45.60
2018-04-15T20:15:15.097Z,44.70
2018-04-15T20:17:42.605Z,44.90
2018-04-15T20:20:10.132Z,44.80
2018-04-15T20:22:37.711Z,44.90
2018-04-15T20:25:05.314Z,44.60
2018-04-15T20:27:34.697Z,45.40
2018-04-15T20:30:02.530Z,44.70
2018-04-15T20:32:30.290Z,43.40
2018-04-15T20:34:57.969Z,44.40
2018-04-15T20:37:25.480Z,44.70
2018-04-15T20:39:53.782Z,44.90
2018-04-15T20:42:21.284Z,44.10
2018-04-15T20:44:49.698Z,44.60
2018-04-15T20:47:17.977Z,45.00
2018-04-15T20:49:47.147Z,44.50
2018-04-15T20:52:15.462Z,44.60
2018-04-15T20:54:42.981Z,44.00
2018-04-15T20:57:10.826Z,44.70
2018-04-15T20:59:38.388Z,44.20
2018-04-15T21:02:05.960Z,44.70
2018-04-15T21:04:33.593Z,44.30
2018-04-15T21:07:01.359Z,44.30
2018-04-15T21:09:29.330Z,43.90
2018-04-15T21:11:56.923Z,43.90
2018-04-15T21:14:24.761Z,43.90
2018-04-15T21:16:52.304Z,43.80
2018-04-15T21:19:22.180Z,44.00
2018-04-15T21:21:49.751Z,44.00
2018-04-15T21:24:18.070Z,45.50
2018-04-15T21:26:45.834Z,44.20
2018-04-15T21:29:13.415Z,44.80
2018-04-15T21:31:40.953Z,44.40
2018-04-15T21:34:08.481Z,44.50
2018-04-15T21:36:36.283Z,44.40
2018-04-15T21:39:05.983Z,45.20
2018-04-15T21:41:33.842Z,44.70
2018-04-15T21:44:01.424Z,45.00
2018-04-15T21:46:28.921Z,45.10
2018-04-15T21:48:57.255Z,45.80
2018-04-15T21:51:24.743Z,45.40
2018-04-15T21:53:53.073Z,46.40
2018-04-15T21:56:20.744Z,45.10
2018-04-15T21:58:48.503Z,45.20
2018-04-15T22:01:16.392Z,45.40
2018-04-15T22:03:43.904Z,45.10
2018-04-15T22:06:11.489Z,45.40
2018-04-15T22:08:39.351Z,45.90
2018-04-15T22:11:06.938Z,45.90
2018-04-15T22:13:34.455Z,46.10
2018-04-15T22:16:01.965Z,46.80
2018-04-15T22:18:30.291Z,47.40
2018-04-15T22:20:58.069Z,47.00
2018-04-15T22:23:26.283Z,47.80
2018-04-15T22:25:55.327Z,48.80
2018-04-15T22:28:22.835Z,48.60
2018-04-15T22:30:50.377Z,48.90
2018-04-15T22:33:17.974Z,49.40
2018-04-15T22:35:46.421Z,50.50
2018-04-15T22:38:13.942Z,50.00
2018-04-15T22:40:41.853Z,50.80
2018-04-15T22:43:09.694Z,51.40
2018-04-15T22:45:37.952Z,51.80
2018-04-15T22:48:07.134Z,52.00
2018-04-15T22:50:38.417Z,52.60
2018-04-15T22:53:06.444Z,53.00
2018-04-15T22:55:35.134Z,53.80
2018-04-15T22:58:03.528Z,53.80
2018-04-15T23:00:31.129Z,53.40
2018-04-15T23:02:58.664Z,53.80
2018-04-15T23:05:26.183Z,53.90
2018-04-15T23:07:54.598Z,55.00
2018-04-15T23:10:22.487Z,54.70
2018-04-15T23:12:50.030Z,55.00
2018-04-15T23:15:17.576Z,54.90
2018-04-15T23:17:45.096Z,55.30
2018-04-15T23:20:13.371Z,56.00
2018-04-15T23:22:41.662Z,55.40
2018-04-15T23:25:09.957Z,56.00
2018-04-15T23:27:37.498Z,56.00
2018-04-15T23:30:05.804Z,56.00
2018-04-15T23:32:33.306Z,56.00
2018-04-15T23:35:00.825Z,55.70
2018-04-15T23:37:29.048Z,55.70
2018-04-15T23:39:58.109Z,56.20
2018-04-15T23:42:25.597Z,56.20
2018-04-15T23:44:53.116Z,56.20
2018-04-15T23:47:20.610Z,55.80
2018-04-15T23:49:48.117Z,55.70
2018-04-15T23:52:15.766Z,55.90
2018-04-15T23:54:43.302Z,55.80
2018-04-15T23:57:11.594Z,57.00
2018-04-15T23:59:39.138Z,56.50
